sensor_id;sensor_type;location;lat;lon;timestamp;pressure;altitude;pressure_sealevel;temperature;humidity
22047;BME280;11187;49.412;20.956;2023-06-24T00:02:30;95205.72;;;19.25;100.00
22047;BME280;11187;49.412;20.956;2023-06-24T00:05:05;95207.47;;;19.24;100.00
22047;BME280;11187;49.412;20.956;2023-06-24T00:07:51;95198.09;;;19.22;100.00
22047;BME280;11187;49.412;20.956;2023-06-24T00:10:26;95191.22;;;19.20;100.00
22047;BME280;11187;49.412;20.956;2023-06-24T00:13:19;95187.78;;;19.20;100.00
22047;BME280;11187;49.412;20.956;2023-06-24T00:16:13;95186.13;;;19.19;100.00
22047;BME280;11187;49.412;20.956;2023-06-24T00:18:47;95190.44;;;19.18;100.00
22047;BME280;11187;49.412;20.956;2023-06-24T00:21:33;95197.41;;;19.18;100.00
22047;BME280;11187;49.412;20.956;2023-06-24T00:24:07;95187.09;;;19.16;100.00
22047;BME280;11187;49.412;20.956;2023-06-24T00:26:54;95197.56;;;19.15;100.00
22047;BME280;11187;49.412;20.956;2023-06-24T00:29:27;95185.50;;;19.14;100.00
22047;BME280;11187;49.412;20.956;2023-06-24T00:32:13;95179.47;;;19.13;100.00
22047;BME280;11187;49.412;20.956;2023-06-24T00:34:47;95176.88;;;19.13;100.00
22047;BME280;11187;49.412;20.956;2023-06-24T00:37:38;95180.41;;;19.12;100.00
22047;BME280;11187;49.412;20.956;2023-06-24T00:40:11;95177.03;;;19.10;100.00
22047;BME280;11187;49.412;20.956;2023-06-24T00:42:58;95183.22;;;19.08;100.00
22047;BME280;11187;49.412;20.956;2023-06-24T00:45:31;95173.75;;;19.07;100.00
22047;BME280;11187;49.412;20.956;2023-06-24T00:48:19;95175.44;;;19.08;100.00
22047;BME280;11187;49.412;20.956;2023-06-24T00:50:54;95184.06;;;19.08;100.00
22047;BME280;11187;49.412;20.956;2023-06-24T00:53:47;95182.47;;;19.06;100.00
22047;BME280;11187;49.412;20.956;2023-06-24T00:56:42;95191.25;;;19.03;100.00
22047;BME280;11187;49.412;20.956;2023-06-24T00:59:16;95200.84;;;19.01;100.00
22047;BME280;11187;49.412;20.956;2023-06-24T01:02:04;95201.75;;;19.00;100.00
22047;BME280;11187;49.412;20.956;2023-06-24T01:04:37;95210.38;;;19.01;100.00
22047;BME280;11187;49.412;20.956;2023-06-24T01:07:24;95219.16;;;18.98;100.00
22047;BME280;11187;49.412;20.956;2023-06-24T01:09:57;95229.53;;;18.98;100.00
22047;BME280;11187;49.412;20.956;2023-06-24T01:12:45;95229.63;;;18.96;100.00
22047;BME280;11187;49.412;20.956;2023-06-24T01:15:19;95238.19;;;18.98;100.00
22047;BME280;11187;49.412;20.956;2023-06-24T01:25:40;95236.66;;;18.94;100.00
22047;BME280;11187;49.412;20.956;2023-06-24T01:28:21;95236.88;;;18.90;100.00
22047;BME280;11187;49.412;20.956;2023-06-24T01:34:32;95238.75;;;18.86;100.00
22047;BME280;11187;49.412;20.956;2023-06-24T01:37:16;95245.72;;;18.86;100.00
22047;BME280;11187;49.412;20.956;2023-06-24T01:40:16;95237.16;;;18.84;100.00
22047;BME280;11187;49.412;20.956;2023-06-24T01:43:15;95240.69;;;18.83;100.00
22047;BME280;11187;49.412;20.956;2023-06-24T01:46:11;95243.28;;;18.83;100.00
22047;BME280;11187;49.412;20.956;2023-06-24T01:48:45;95246.78;;;18.82;100.00
22047;BME280;11187;49.412;20.956;2023-06-24T01:51:41;95238.16;;;18.81;100.00
22047;BME280;11187;49.412;20.956;2023-06-24T01:54:38;95246.00;;;18.80;100.00
22047;BME280;11187;49.412;20.956;2023-06-24T01:57:12;95246.00;;;18.80;100.00
22047;BME280;11187;49.412;20.956;2023-06-24T02:00:02;95255.56;;;18.79;100.00
22047;BME280;11187;49.412;20.956;2023-06-24T02:02:39;95246.94;;;18.78;100.00
22047;BME280;11187;49.412;20.956;2023-06-24T02:05:27;95249.53;;;18.78;100.00
22047;BME280;11187;49.412;20.956;2023-06-24T02:08:05;95242.59;;;18.79;100.00
22047;BME280;11187;49.412;20.956;2023-06-24T02:11:01;95242.50;;;18.81;100.00
22047;BME280;11187;49.412;20.956;2023-06-24T02:13:36;95244.25;;;18.80;100.00
22047;BME280;11187;49.412;20.956;2023-06-24T02:16:33;95241.75;;;18.78;100.00
22047;BME280;11187;49.412;20.956;2023-06-24T02:19:09;95240.06;;;18.77;100.00
22047;BME280;11187;49.412;20.956;2023-06-24T02:21:58;95230.63;;;18.75;100.00
22047;BME280;11187;49.412;20.956;2023-06-24T02:24:32;95223.78;;;18.74;100.00
22047;BME280;11187;49.412;20.956;2023-06-24T02:27:19;95220.41;;;18.72;100.00
22047;BME280;11187;49.412;20.956;2023-06-24T02:29:54;95216.13;;;18.71;100.00
22047;BME280;11187;49.412;20.956;2023-06-24T02:32:42;95212.03;;;18.67;100.00
22047;BME280;11187;49.412;20.956;2023-06-24T02:35:15;95210.41;;;18.64;100.00
22047;BME280;11187;49.412;20.956;2023-06-24T02:38:08;95203.72;;;18.60;100.00
22047;BME280;11187;49.412;20.956;2023-06-24T02:40:45;95198.59;;;18.58;100.00
22047;BME280;11187;49.412;20.956;2023-06-24T02:43:32;95196.91;;;18.57;100.00
22047;BME280;11187;49.412;20.956;2023-06-24T02:46:07;95196.16;;;18.55;100.00
22047;BME280;11187;49.412;20.956;2023-06-24T02:48:56;95191.03;;;18.54;100.00
22047;BME280;11187;49.412;20.956;2023-06-24T02:51:31;95185.91;;;18.52;100.00
22047;BME280;11187;49.412;20.956;2023-06-24T02:54:19;95173.03;;;18.51;100.00
22047;BME280;11187;49.412;20.956;2023-06-24T02:56:52;95169.59;;;18.50;100.00
22047;BME280;11187;49.412;20.956;2023-06-24T02:59:40;95161.03;;;18.48;100.00
22047;BME280;11187;49.412;20.956;2023-06-24T03:02:15;95157.63;;;18.48;100.00
22047;BME280;11187;49.412;20.956;2023-06-24T03:05:03;95151.66;;;18.46;100.00
22047;BME280;11187;49.412;20.956;2023-06-24T03:07:37;95147.41;;;18.45;100.00
22047;BME280;11187;49.412;20.956;2023-06-24T03:10:31;95148.31;;;18.44;100.00
22047;BME280;11187;49.412;20.956;2023-06-24T03:13:26;95143.22;;;18.42;100.00
22047;BME280;11187;49.412;20.956;2023-06-24T03:15:59;95135.56;;;18.39;100.00
22047;BME280;11187;49.412;20.956;2023-06-24T03:18:45;95140.75;;;18.39;100.00
22047;BME280;11187;49.412;20.956;2023-06-24T03:21:19;95141.84;;;18.35;100.00
22047;BME280;11187;49.412;20.956;2023-06-24T03:24:08;95141.06;;;18.33;100.00
22047;BME280;11187;49.412;20.956;2023-06-24T03:26:42;95142.06;;;18.30;100.00
22047;BME280;11187;49.412;20.956;2023-06-24T03:29:35;95144.84;;;18.26;100.00
22047;BME280;11187;49.412;20.956;2023-06-24T03:32:09;95145.78;;;18.25;100.00
22047;BME280;11187;49.412;20.956;2023-06-24T03:34:55;95142.34;;;18.24;100.00
22047;BME280;11187;49.412;20.956;2023-06-24T03:37:29;95141.53;;;18.24;100.00
22047;BME280;11187;49.412;20.956;2023-06-24T03:40:15;95137.22;;;18.23;100.00
22047;BME280;11187;49.412;20.956;2023-06-24T03:42:49;95138.16;;;18.22;100.00
22047;BME280;11187;49.412;20.956;2023-06-24T03:45:35;95142.56;;;18.20;100.00
22047;BME280;11187;49.412;20.956;2023-06-24T03:48:10;95125.34;;;18.19;100.00
22047;BME280;11187;49.412;20.956;2023-06-24T03:51:04;95130.59;;;18.17;100.00
22047;BME280;11187;49.412;20.956;2023-06-24T03:53:57;95122.06;;;18.15;100.00
22047;BME280;11187;49.412;20.956;2023-06-24T03:56:31;95125.56;;;18.14;100.00
22047;BME280;11187;49.412;20.956;2023-06-24T03:59:17;95127.38;;;18.12;100.00
22047;BME280;11187;49.412;20.956;2023-06-24T04:01:51;95136.97;;;18.10;100.00
22047;BME280;11187;49.412;20.956;2023-06-24T04:04:37;95150.09;;;18.07;100.00
22047;BME280;11187;49.412;20.956;2023-06-24T04:07:11;95154.50;;;18.05;100.00
22047;BME280;11187;49.412;20.956;2023-06-24T04:10:08;95151.22;;;18.01;100.00
22047;BME280;11187;49.412;20.956;2023-06-24T04:12:42;95151.28;;;18.00;100.00
22047;BME280;11187;49.412;20.956;2023-06-24T04:15:35;95163.47;;;17.98;100.00
22047;BME280;11187;49.412;20.956;2023-06-24T04:18:09;95172.16;;;17.97;100.00
22047;BME280;11187;49.412;20.956;2023-06-24T04:21:02;95170.41;;;17.97;100.00
22047;BME280;11187;49.412;20.956;2023-06-24T04:23:36;95160.03;;;17.97;100.00
22047;BME280;11187;49.412;20.956;2023-06-24T04:26:30;95154.91;;;17.95;100.00
22047;BME280;11187;49.412;20.956;2023-06-24T04:29:03;95167.88;;;17.95;100.00
22047;BME280;11187;49.412;20.956;2023-06-24T04:31:57;95182.53;;;17.97;100.00
22047;BME280;11187;49.412;20.956;2023-06-24T04:34:30;95178.19;;;17.97;100.00
22047;BME280;11187;49.412;20.956;2023-06-24T04:37:17;95178.94;;;17.99;100.00
22047;BME280;11187;49.412;20.956;2023-06-24T04:39:50;95184.13;;;17.99;100.00
22047;BME280;11187;49.412;20.956;2023-06-24T04:42:36;95186.72;;;17.99;100.00
22047;BME280;11187;49.412;20.956;2023-06-24T04:45:10;95194.50;;;17.99;100.00
22047;BME280;11187;49.412;20.956;2023-06-24T04:48:04;95205.75;;;17.98;100.00
22047;BME280;11187;49.412;20.956;2023-06-24T04:50:57;95203.09;;;18.00;100.00
22047;BME280;11187;49.412;20.956;2023-06-24T04:53:51;95204.09;;;17.97;100.00
22047;BME280;11187;49.412;20.956;2023-06-24T04:56:25;95205.75;;;17.98;100.00
22047;BME280;11187;49.412;20.956;2023-06-24T04:59:11;95217.88;;;17.98;100.00
22047;BME280;11187;49.412;20.956;2023-06-24T05:01:45;95207.50;;;17.98;100.00
22047;BME280;11187;49.412;20.956;2023-06-24T05:04:31;95212.75;;;17.96;100.00
22047;BME280;11187;49.412;20.956;2023-06-24T05:07:05;95206.88;;;17.92;100.00
22047;BME280;11187;49.412;20.956;2023-06-24T05:09:58;95206.94;;;17.91;100.00
22047;BME280;11187;49.412;20.956;2023-06-24T05:12:32;95212.13;;;17.91;100.00
22047;BME280;11187;49.412;20.956;2023-06-24T05:15:26;95206.16;;;17.89;100.00
22047;BME280;11187;49.412;20.956;2023-06-24T05:18:19;95210.47;;;17.90;100.00
22047;BME280;11187;49.412;20.956;2023-06-24T05:21:13;95209.59;;;17.89;100.00
22047;BME280;11187;49.412;20.956;2023-06-24T05:23:47;95207.94;;;17.88;100.00
22047;BME280;11187;49.412;20.956;2023-06-24T05:26:40;95203.66;;;17.87;100.00
22047;BME280;11187;49.412;20.956;2023-06-24T05:29:35;95205.50;;;17.85;100.00
22047;BME280;11187;49.412;20.956;2023-06-24T05:32:08;95208.06;;;17.85;100.00
22047;BME280;11187;49.412;20.956;2023-06-24T05:35:04;95214.09;;;17.86;100.00
22047;BME280;11187;49.412;20.956;2023-06-24T05:37:57;95213.25;;;17.85;100.00
22047;BME280;11187;49.412;20.956;2023-06-24T05:40:31;95208.97;;;17.84;100.00
22047;BME280;11187;49.412;20.956;2023-06-24T05:43:17;95211.56;;;17.84;100.00
22047;BME280;11187;49.412;20.956;2023-06-24T05:45:51;95216.75;;;17.84;100.00
22047;BME280;11187;49.412;20.956;2023-06-24T05:48:38;95221.19;;;17.81;100.00
22047;BME280;11187;49.412;20.956;2023-06-24T05:51:11;95216.88;;;17.81;100.00
22047;BME280;11187;49.412;20.956;2023-06-24T05:53:58;95223.06;;;17.77;100.00
22047;BME280;11187;49.412;20.956;2023-06-24T05:56:32;95233.44;;;17.77;100.00
22047;BME280;11187;49.412;20.956;2023-06-24T05:59:19;95243.03;;;17.75;100.00
22047;BME280;11187;49.412;20.956;2023-06-24T06:01:52;95248.19;;;17.75;100.00
22047;BME280;11187;49.412;20.956;2023-06-24T06:04:39;95251.00;;;17.70;100.00
22047;BME280;11187;49.412;20.956;2023-06-24T06:07:12;95256.22;;;17.69;100.00
22047;BME280;11187;49.412;20.956;2023-06-24T06:09:59;95257.09;;;17.69;100.00
22047;BME280;11187;49.412;20.956;2023-06-24T06:12:33;95259.69;;;17.69;100.00
22047;BME280;11187;49.412;20.956;2023-06-24T06:15:20;95261.41;;;17.69;100.00
22047;BME280;11187;49.412;20.956;2023-06-24T06:17:53;95267.44;;;17.69;100.00
22047;BME280;11187;49.412;20.956;2023-06-24T06:20:40;95273.47;;;17.70;100.00
22047;BME280;11187;49.412;20.956;2023-06-24T06:23:13;95273.47;;;17.70;100.00
22047;BME280;11187;49.412;20.956;2023-06-24T06:26:00;95276.88;;;17.70;100.00
22047;BME280;11187;49.412;20.956;2023-06-24T06:28:33;95277.66;;;17.72;100.00
22047;BME280;11187;49.412;20.956;2023-06-24T06:31:21;95283.69;;;17.73;100.00
22047;BME280;11187;49.412;20.956;2023-06-24T06:33:54;95291.44;;;17.73;100.00
22047;BME280;11187;49.412;20.956;2023-06-24T06:36:42;95290.56;;;17.74;100.00
22047;BME280;11187;49.412;20.956;2023-06-24T06:39:15;95289.63;;;17.75;100.00
22047;BME280;11187;49.412;20.956;2023-06-24T06:42:02;95299.94;;;17.77;100.00
22047;BME280;11187;49.412;20.956;2023-06-24T06:44:35;95302.56;;;17.75;100.00
22047;BME280;11187;49.412;20.956;2023-06-24T06:47:22;95300.00;;;17.75;100.00
22047;BME280;11187;49.412;20.956;2023-06-24T06:49:56;95300.00;;;17.75;100.00
22047;BME280;11187;49.412;20.956;2023-06-24T06:52:43;95311.28;;;17.74;100.00
22047;BME280;11187;49.412;20.956;2023-06-24T06:55:16;95306.91;;;17.74;100.00
22047;BME280;11187;49.412;20.956;2023-06-24T06:58:03;95316.44;;;17.74;100.00
22047;BME280;11187;49.412;20.956;2023-06-24T07:00:36;95319.88;;;17.74;100.00
22047;BME280;11187;49.412;20.956;2023-06-24T07:03:23;95315.53;;;17.75;100.00
22047;BME280;11187;49.412;20.956;2023-06-24T07:05:57;95318.94;;;17.75;100.00
22047;BME280;11187;49.412;20.956;2023-06-24T07:08:44;95317.22;;;17.76;100.00
22047;BME280;11187;49.412;20.956;2023-06-24T07:11:17;95321.47;;;17.77;100.00
22047;BME280;11187;49.412;20.956;2023-06-24T07:14:04;95322.31;;;17.78;100.00
22047;BME280;11187;49.412;20.956;2023-06-24T07:16:38;95324.84;;;17.79;100.00
22047;BME280;11187;49.412;20.956;2023-06-24T07:19:25;95332.63;;;17.79;100.00
22047;BME280;11187;49.412;20.956;2023-06-24T07:21:58;95322.25;;;17.79;100.00
22047;BME280;11187;49.412;20.956;2023-06-24T07:24:45;95327.50;;;17.78;100.00
22047;BME280;11187;49.412;20.956;2023-06-24T07:27:18;95335.25;;;17.78;100.00
22047;BME280;11187;49.412;20.956;2023-06-24T07:30:08;95336.84;;;17.82;100.00
22047;BME280;11187;49.412;20.956;2023-06-24T07:32:42;95337.50;;;17.87;100.00
22047;BME280;11187;49.412;20.956;2023-06-24T07:35:29;95342.63;;;18.07;100.00
22047;BME280;11187;49.412;20.956;2023-06-24T07:38:02;95339.34;;;18.04;100.00
22047;BME280;11187;49.412;20.956;2023-06-24T07:40:50;95341.31;;;17.99;100.00
22047;BME280;11187;49.412;20.956;2023-06-24T07:43:23;95340.44;;;17.98;100.00
22047;BME280;11187;49.412;20.956;2023-06-24T07:46:10;95331.91;;;17.96;100.00
22047;BME280;11187;49.412;20.956;2023-06-24T07:48:43;95335.41;;;17.95;100.00
22047;BME280;11187;49.412;20.956;2023-06-24T07:51:30;95344.09;;;17.94;100.00
22047;BME280;11187;49.412;20.956;2023-06-24T07:54:03;95339.00;;;17.92;100.00
22047;BME280;11187;49.412;20.956;2023-06-24T07:56:50;95346.75;;;17.92;100.00
22047;BME280;11187;49.412;20.956;2023-06-24T07:59:23;95345.91;;;17.92;100.00
22047;BME280;11187;49.412;20.956;2023-06-24T08:02:10;95344.22;;;17.91;100.00
22047;BME280;11187;49.412;20.956;2023-06-24T08:04:43;95354.59;;;17.91;100.00
22047;BME280;11187;49.412;20.956;2023-06-24T08:07:40;95357.22;;;17.89;100.00
22047;BME280;11187;49.412;20.956;2023-06-24T08:10:34;95358.09;;;17.90;100.00
22047;BME280;11187;49.412;20.956;2023-06-24T08:13:28;95358.09;;;17.90;100.00
22047;BME280;11187;49.412;20.956;2023-06-24T08:16:01;95358.09;;;17.90;100.00
22047;BME280;11187;49.412;20.956;2023-06-24T08:18:55;95359.91;;;17.88;100.00
22047;BME280;11187;49.412;20.956;2023-06-24T08:21:49;95363.38;;;17.87;100.00
22047;BME280;11187;49.412;20.956;2023-06-24T08:24:22;95367.72;;;17.86;100.00
22047;BME280;11187;49.412;20.956;2023-06-24T08:27:09;95366.91;;;17.86;100.00
22047;BME280;11187;49.412;20.956;2023-06-24T08:29:42;95371.25;;;17.85;100.00
22047;BME280;11187;49.412;20.956;2023-06-24T08:32:29;95379.91;;;17.84;100.00
22047;BME280;11187;49.412;20.956;2023-06-24T08:35:02;95375.66;;;17.83;100.00
22047;BME280;11187;49.412;20.956;2023-06-24T08:37:56;95375.69;;;17.82;100.00
22047;BME280;11187;49.412;20.956;2023-06-24T08:40:50;95371.41;;;17.81;100.00
22047;BME280;11187;49.412;20.956;2023-06-24T08:43:23;95380.91;;;17.80;100.00
22047;BME280;11187;49.412;20.956;2023-06-24T08:46:17;95380.06;;;17.80;100.00
22047;BME280;11187;49.412;20.956;2023-06-24T08:52:08;95380.03;;;17.81;100.00
22047;BME280;11187;49.412;20.956;2023-06-24T08:55:06;95380.03;;;17.81;100.00
22047;BME280;11187;49.412;20.956;2023-06-24T08:58:03;95384.97;;;17.87;100.00
22047;BME280;11187;49.412;20.956;2023-06-24T09:00:36;95387.91;;;18.19;100.00
22047;BME280;11187;49.412;20.956;2023-06-24T09:03:30;95390.63;;;18.16;100.00
22047;BME280;11187;49.412;20.956;2023-06-24T09:06:06;95399.38;;;18.13;100.00
22047;BME280;11187;49.412;20.956;2023-06-24T09:08:54;95395.22;;;18.09;100.00
22047;BME280;11187;49.412;20.956;2023-06-24T09:11:28;95399.56;;;18.09;100.00
22047;BME280;11187;49.412;20.956;2023-06-24T09:14:23;95395.44;;;18.05;100.00
22047;BME280;11187;49.412;20.956;2023-06-24T09:17:18;95402.44;;;18.03;100.00
22047;BME280;11187;49.412;20.956;2023-06-24T09:20:04;95400.75;;;18.02;100.00
22047;BME280;11187;49.412;20.956;2023-06-24T09:22:57;95415.53;;;18.00;100.00
22047;BME280;11187;49.412;20.956;2023-06-24T09:25:31;95413.91;;;17.97;100.00
22047;BME280;11187;49.412;20.956;2023-06-24T09:28:19;95408.88;;;17.94;100.00
22047;BME280;11187;49.412;20.956;2023-06-24T09:31:09;95411.47;;;17.94;100.00
22047;BME280;11187;49.412;20.956;2023-06-24T09:33:59;95413.28;;;17.92;100.00
22047;BME280;11187;49.412;20.956;2023-06-24T09:36:32;95414.31;;;17.88;100.00
22047;BME280;11187;49.412;20.956;2023-06-24T09:39:26;95414.31;;;17.88;100.00
22047;BME280;11187;49.412;20.956;2023-06-24T09:42:21;95414.34;;;17.86;100.00
22047;BME280;11187;49.412;20.956;2023-06-24T09:44:55;95418.69;;;17.86;100.00
22047;BME280;11187;49.412;20.956;2023-06-24T09:47:42;95422.97;;;17.87;100.00
22047;BME280;11187;49.412;20.956;2023-06-24T09:50:15;95421.28;;;17.86;100.00
22047;BME280;11187;49.412;20.956;2023-06-24T09:53:02;95417.88;;;17.85;100.00
22047;BME280;11187;49.412;20.956;2023-06-24T09:55:38;95417.88;;;17.85;100.00
22047;BME280;11187;49.412;20.956;2023-06-24T09:58:36;95423.03;;;17.85;100.00
22047;BME280;11187;49.412;20.956;2023-06-24T10:01:12;95423.88;;;17.86;100.00
22047;BME280;11187;49.412;20.956;2023-06-24T10:04:06;95419.53;;;17.86;100.00
22047;BME280;11187;49.412;20.956;2023-06-24T10:07:01;95423.03;;;17.85;100.00
22047;BME280;11187;49.412;20.956;2023-06-24T10:09:36;95416.09;;;17.86;100.00
22047;BME280;11187;49.412;20.956;2023-06-24T10:12:33;95422.19;;;17.85;100.00
22047;BME280;11187;49.412;20.956;2023-06-24T10:15:07;95417.91;;;17.84;100.00
22047;BME280;11187;49.412;20.956;2023-06-24T10:17:55;95424.78;;;17.85;100.00
22047;BME280;11187;49.412;20.956;2023-06-24T10:20:36;95435.22;;;17.83;100.00
22047;BME280;11187;49.412;20.956;2023-06-24T10:23:31;95430.88;;;17.84;100.00
22047;BME280;11187;49.412;20.956;2023-06-24T10:26:23;95433.47;;;17.84;100.00
22047;BME280;11187;49.412;20.956;2023-06-24T10:29:10;95432.53;;;17.85;100.00
22047;BME280;11187;49.412;20.956;2023-06-24T10:34:39;95425.56;;;17.87;100.00
22047;BME280;11187;49.412;20.956;2023-06-24T10:37:18;95430.69;;;17.88;100.00
22047;BME280;11187;49.412;20.956;2023-06-24T10:40:13;95425.50;;;17.88;100.00
22047;BME280;11187;49.412;20.956;2023-06-24T10:43:27;95421.16;;;17.89;100.00
22047;BME280;11187;49.412;20.956;2023-06-24T10:46:14;95425.44;;;17.90;100.00
22047;BME280;11187;49.412;20.956;2023-06-24T10:49:01;95418.50;;;17.90;100.00
22047;BME280;11187;49.412;20.956;2023-06-24T10:51:34;95420.19;;;17.91;100.00
22047;BME280;11187;49.412;20.956;2023-06-24T10:54:24;95420.19;;;17.91;100.00
22047;BME280;11187;49.412;20.956;2023-06-24T10:56:57;95422.72;;;17.93;100.00
22047;BME280;11187;49.412;20.956;2023-06-24T10:59:47;95425.31;;;17.93;100.00
22047;BME280;11187;49.412;20.956;2023-06-24T11:02:23;95424.28;;;17.97;100.00
22047;BME280;11187;49.412;20.956;2023-06-24T11:05:10;95424.13;;;18.00;100.00
22047;BME280;11187;49.412;20.956;2023-06-24T11:07:43;95426.59;;;18.03;100.00
22047;BME280;11187;49.412;20.956;2023-06-24T11:10:30;95429.06;;;18.06;100.00
22047;BME280;11187;49.412;20.956;2023-06-24T11:13:06;95420.31;;;18.09;100.00
22047;BME280;11187;49.412;20.956;2023-06-24T11:15:59;95431.31;;;18.14;100.00
22047;BME280;11187;49.412;20.956;2023-06-24T11:18:38;95430.28;;;18.18;100.00
22047;BME280;11187;49.412;20.956;2023-06-24T11:21:30;95432.72;;;18.21;100.00
22047;BME280;11187;49.412;20.956;2023-06-24T11:24:05;95437.00;;;18.22;100.00
22047;BME280;11187;49.412;20.956;2023-06-24T11:26:59;95437.00;;;18.22;100.00
22047;BME280;11187;49.412;20.956;2023-06-24T11:29:54;95433.78;;;18.17;100.00
22047;BME280;11187;49.412;20.956;2023-06-24T11:32:41;95434.78;;;18.14;100.00
22047;BME280;11187;49.412;20.956;2023-06-24T11:35:30;95429.63;;;18.13;100.00
22047;BME280;11187;49.412;20.956;2023-06-24T11:38:08;95422.84;;;18.10;100.00
22047;BME280;11187;49.412;20.956;2023-06-24T11:40:57;95423.72;;;18.09;100.00
22047;BME280;11187;49.412;20.956;2023-06-24T11:43:31;95428.13;;;18.07;100.00
22047;BME280;11187;49.412;20.956;2023-06-24T11:46:24;95433.47;;;18.04;100.00
22047;BME280;11187;49.412;20.956;2023-06-24T11:51:52;95431.13;;;17.98;100.00
22047;BME280;11187;49.412;20.956;2023-06-24T11:54:49;95423.44;;;17.97;100.00
22047;BME280;11187;49.412;20.956;2023-06-24T11:57:50;95423.50;;;17.95;100.00
22047;BME280;11187;49.412;20.956;2023-06-24T12:03:11;95420.84;;;17.97;100.00
22047;BME280;11187;49.412;20.956;2023-06-24T12:05:47;95421.63;;;17.99;100.00
22047;BME280;11187;49.412;20.956;2023-06-24T12:08:34;95423.28;;;18.00;100.00
22047;BME280;11187;49.412;20.956;2023-06-24T12:11:18;95430.22;;;17.99;100.00
22047;BME280;11187;49.412;20.956;2023-06-24T12:14:05;95430.28;;;17.98;100.00
22047;BME280;11187;49.412;20.956;2023-06-24T12:16:39;95438.00;;;17.99;100.00
22047;BME280;11187;49.412;20.956;2023-06-24T12:19:27;95437.16;;;17.99;100.00
22047;BME280;11187;49.412;20.956;2023-06-24T12:22:00;95437.16;;;17.99;100.00
22047;BME280;11187;49.412;20.956;2023-06-24T12:24:47;95439.03;;;17.95;100.00
22047;BME280;11187;49.412;20.956;2023-06-24T12:27:20;95443.44;;;17.93;100.00
22047;BME280;11187;49.412;20.956;2023-06-24T12:30:15;95442.66;;;17.91;100.00
22047;BME280;11187;49.412;20.956;2023-06-24T12:32:50;95447.06;;;17.89;100.00
22047;BME280;11187;49.412;20.956;2023-06-24T12:35:37;95438.50;;;17.87;100.00
22047;BME280;11187;49.412;20.956;2023-06-24T12:38:10;95450.63;;;17.86;100.00
22047;BME280;11187;49.412;20.956;2023-06-24T12:41:04;95448.09;;;17.85;100.00
22047;BME280;11187;49.412;20.956;2023-06-24T12:43:37;95450.81;;;17.82;100.00
22047;BME280;11187;49.412;20.956;2023-06-24T12:46:31;95446.63;;;17.78;100.00
22047;BME280;11187;49.412;20.956;2023-06-24T12:49:25;95448.50;;;17.74;100.00
22047;BME280;11187;49.412;20.956;2023-06-24T12:51:58;95445.16;;;17.72;100.00
22047;BME280;11187;49.412;20.956;2023-06-24T12:54:45;95445.19;;;17.70;100.00
22047;BME280;11187;49.412;20.956;2023-06-24T12:57:18;95441.63;;;17.73;100.00
22047;BME280;11187;49.412;20.956;2023-06-24T13:00:05;95445.19;;;17.70;100.00
22047;BME280;11187;49.412;20.956;2023-06-24T13:02:38;95436.59;;;17.70;100.00
22047;BME280;11187;49.412;20.956;2023-06-24T13:05:32;95446.16;;;17.68;100.00
22047;BME280;11187;49.412;20.956;2023-06-24T13:08:05;95447.97;;;17.66;100.00
22047;BME280;11187;49.412;20.956;2023-06-24T13:10:52;95449.78;;;17.64;100.00
22047;BME280;11187;49.412;20.956;2023-06-24T13:13:25;95449.97;;;17.59;100.00
22047;BME280;11187;49.412;20.956;2023-06-24T13:16:12;95442.25;;;17.58;100.00
22047;BME280;11187;49.412;20.956;2023-06-24T13:18:45;95442.25;;;17.58;100.00
22047;BME280;11187;49.412;20.956;2023-06-24T13:21:32;95450.94;;;17.57;100.00
22047;BME280;11187;49.412;20.956;2023-06-24T13:24:05;95453.66;;;17.53;100.00
22047;BME280;11187;49.412;20.956;2023-06-24T13:26:53;95453.75;;;17.50;100.00
22047;BME280;11187;49.412;20.956;2023-06-24T13:29:26;95456.44;;;17.49;100.00
22047;BME280;11187;49.412;20.956;2023-06-24T13:32:13;95447.88;;;17.47;100.00
22047;BME280;11187;49.412;20.956;2023-06-24T13:34:46;95463.53;;;17.44;100.00
22047;BME280;11187;49.412;20.956;2023-06-24T13:37:33;95461.81;;;17.44;100.00
22047;BME280;11187;49.412;20.956;2023-06-24T13:40:07;95455.75;;;17.44;100.00
22047;BME280;11187;49.412;20.956;2023-06-24T13:42:54;95449.69;;;17.45;100.00
22047;BME280;11187;49.412;20.956;2023-06-24T13:45:27;95444.47;;;17.46;100.00
22047;BME280;11187;49.412;20.956;2023-06-24T13:48:14;95444.38;;;17.48;100.00
22047;BME280;11187;49.412;20.956;2023-06-24T13:50:47;95445.13;;;17.51;100.00
22047;BME280;11187;49.412;20.956;2023-06-24T13:53:34;95443.31;;;17.53;100.00
22047;BME280;11187;49.412;20.956;2023-06-24T13:56:07;95438.06;;;17.55;100.00
22047;BME280;11187;49.412;20.956;2023-06-24T13:59:01;95442.38;;;17.54;100.00
22047;BME280;11187;49.412;20.956;2023-06-24T14:01:57;95437.25;;;17.53;100.00
22047;BME280;11187;49.412;20.956;2023-06-24T14:04:30;95438.19;;;17.52;100.00
22047;BME280;11187;49.412;20.956;2023-06-24T14:07:24;95437.44;;;17.48;100.00
22047;BME280;11187;49.412;20.956;2023-06-24T14:09:58;95445.47;;;17.42;100.00
22047;BME280;11187;49.412;20.956;2023-06-24T14:12:52;95449.94;;;17.39;100.00
22047;BME280;11187;49.412;20.956;2023-06-24T14:15:46;95447.47;;;17.36;100.00
22047;BME280;11187;49.412;20.956;2023-06-24T14:18:19;95442.41;;;17.32;100.00
22047;BME280;11187;49.412;20.956;2023-06-24T14:21:07;95438.38;;;17.25;100.00
22047;BME280;11187;49.412;20.956;2023-06-24T14:23:40;95444.50;;;17.23;100.00
22047;BME280;11187;49.412;20.956;2023-06-24T14:26:27;95453.28;;;17.19;100.00